Terminal Aerodrome Forecast
Issued by NWS Indianapolis, IN

Home | Current Version | Previous Version | Text Only | Print | Product List | Glossary On
Versions: 1 2 3 4 5 6 7 8 9 10 11 12 13 14 15 16 17 18 19 20 21 22 23 24 25 26 27
741
FTUS43 KIND 051425 AAA
TAFIND
TAF AMD
KIND 051425Z 0514/0618 VRB03KT P6SM OVC010
     FM051800 15004KT P6SM BKN040
     FM060300 09006KT P6SM BKN200
     FM061100 07005KT P6SM OVC025
     FM061200 07004KT 4SM -RA OVC010
     FM061500 02004KT 2SM -RA OVC010
     FM061700 33005KT 3SM -RA OVC015=

USA.gov is the U.S. government's official web portal to all federal, state and local government web resources and services.